createdAt,value
2022-08-25T00:00:00.745Z,24.05
2022-08-25T00:01:00.728Z,24.05
2022-08-25T00:02:00.711Z,23.94
2022-08-25T00:03:00.725Z,24.06
2022-08-25T00:04:00.685Z,23.98
2022-08-25T00:05:00.740Z,23.88
2022-08-25T00:06:00.645Z,23.98
2022-08-25T00:07:03.149Z,23.95
2022-08-25T00:08:00.760Z,23.87
2022-08-25T00:09:00.598Z,23.88
2022-08-25T00:10:00.580Z,23.91
2022-08-25T00:11:03.408Z,23.84
2022-08-25T00:12:00.545Z,23.85
2022-08-25T00:13:00.531Z,23.85
2022-08-25T00:14:00.515Z,23.87
2022-08-25T00:15:00.498Z,23.87
2022-08-25T00:16:00.541Z,23.80
2022-08-25T00:17:00.464Z,23.73
2022-08-25T00:18:00.448Z,23.78
2022-08-25T00:19:00.431Z,23.69
2022-08-25T00:20:00.413Z,23.73
2022-08-25T00:21:00.399Z,23.69
2022-08-25T00:22:00.378Z,23.69
2022-08-25T00:23:00.363Z,23.69
2022-08-25T00:24:00.345Z,23.69
2022-08-25T00:25:00.331Z,23.66
2022-08-25T00:26:00.315Z,23.72
2022-08-25T00:27:00.297Z,23.70
2022-08-25T00:28:02.978Z,23.66
2022-08-25T00:29:02.147Z,23.65
2022-08-25T00:30:00.250Z,23.72
2022-08-25T00:31:00.288Z,23.63
2022-08-25T00:32:00.213Z,23.61
2022-08-25T00:33:00.198Z,23.50
2022-08-25T00:34:00.179Z,23.57
2022-08-25T00:35:00.167Z,23.50
2022-08-25T00:36:00.147Z,23.48
2022-08-25T00:37:00.130Z,23.46
2022-08-25T00:38:00.203Z,23.47
2022-08-25T00:39:00.098Z,23.46
2022-08-25T00:40:00.167Z,23.39
2022-08-25T00:41:00.112Z,23.35
2022-08-25T00:42:00.044Z,23.33
2022-08-25T00:43:00.030Z,23.35
2022-08-25T00:44:00.013Z,23.32
2022-08-25T00:45:00.548Z,23.32
2022-08-25T00:46:00.065Z,23.36
2022-08-25T00:46:59.963Z,23.35
2022-08-25T00:48:00.141Z,23.28
2022-08-25T00:48:59.928Z,23.36
2022-08-25T00:49:59.911Z,23.27
2022-08-25T00:50:59.896Z,23.25
2022-08-25T00:51:59.877Z,23.27
2022-08-25T00:52:59.861Z,23.23
2022-08-25T00:53:59.846Z,23.25
2022-08-25T00:55:04.288Z,23.20
2022-08-25T00:55:59.814Z,23.20
2022-08-25T00:56:59.792Z,23.15
2022-08-25T00:57:59.871Z,23.17
2022-08-25T00:58:59.763Z,23.17
2022-08-25T00:59:59.742Z,23.12
2022-08-25T01:00:59.723Z,23.15
2022-08-25T01:01:59.769Z,23.19
2022-08-25T01:02:59.758Z,23.13
2022-08-25T01:03:59.678Z,23.07
2022-08-25T01:04:59.662Z,23.10
2022-08-25T01:05:59.640Z,23.12
2022-08-25T01:06:59.626Z,23.10
2022-08-25T01:07:59.660Z,23.05
2022-08-25T01:08:59.590Z,23.13
2022-08-25T01:09:59.580Z,23.02
2022-08-25T01:10:59.556Z,23.02
2022-08-25T01:11:59.537Z,23.00
2022-08-25T01:12:59.523Z,23.16
2022-08-25T01:13:59.505Z,22.98
2022-08-25T01:14:59.488Z,22.98
2022-08-25T01:15:59.519Z,23.02
2022-08-25T01:16:59.464Z,22.95
2022-08-25T01:17:59.791Z,23.02
2022-08-25T01:18:59.422Z,23.05
2022-08-25T01:19:59.401Z,23.02
2022-08-25T01:20:59.387Z,22.86
2022-08-25T01:21:59.371Z,22.88
2022-08-25T01:22:59.352Z,22.82
2022-08-25T01:23:59.337Z,22.86
2022-08-25T01:24:59.326Z,22.77
2022-08-25T01:25:59.299Z,22.82
2022-08-25T01:26:59.285Z,22.82
2022-08-25T01:27:59.366Z,22.76
2022-08-25T01:28:59.252Z,22.77
2022-08-25T01:29:59.234Z,22.68
2022-08-25T01:30:59.302Z,22.80
2022-08-25T01:31:59.196Z,22.72
2022-08-25T01:32:59.183Z,22.72
2022-08-25T01:33:59.164Z,22.80
2022-08-25T01:34:59.147Z,22.75
2022-08-25T01:35:59.132Z,22.82
2022-08-25T01:36:59.111Z,22.80
2022-08-25T01:37:59.113Z,22.79
2022-08-25T01:38:59.077Z,22.75
2022-08-25T01:39:59.134Z,22.80
2022-08-25T01:40:59.044Z,22.80
2022-08-25T01:41:59.031Z,22.73
2022-08-25T01:42:59.009Z,22.75
2022-08-25T01:43:58.997Z,22.77
2022-08-25T01:44:58.975Z,22.82
2022-08-25T01:45:59.027Z,22.76
2022-08-25T01:46:58.942Z,22.80
2022-08-25T01:47:58.926Z,22.76
2022-08-25T01:48:58.905Z,22.75
2022-08-25T01:49:58.890Z,22.76
2022-08-25T01:50:58.876Z,22.75
2022-08-25T01:51:58.856Z,22.67
2022-08-25T01:52:58.840Z,22.75
2022-08-25T01:53:58.824Z,22.80
2022-08-25T01:54:58.804Z,22.75
2022-08-25T01:55:58.788Z,22.76
2022-08-25T01:56:58.771Z,22.75
2022-08-25T01:57:58.761Z,22.62
2022-08-25T01:58:58.735Z,22.67
2022-08-25T01:59:58.720Z,22.72
2022-08-25T02:00:58.778Z,22.62
2022-08-25T02:02:00.105Z,22.57
2022-08-25T02:02:58.748Z,22.58
2022-08-25T02:03:58.650Z,22.54
2022-08-25T02:04:58.633Z,22.61
2022-08-25T02:05:58.616Z,22.61
2022-08-25T02:06:58.597Z,22.61
2022-08-25T02:07:58.581Z,22.55
2022-08-25T02:08:58.564Z,22.60
2022-08-25T02:09:58.789Z,22.58
2022-08-25T02:10:58.527Z,22.61
2022-08-25T02:11:58.511Z,22.57
2022-08-25T02:12:58.495Z,22.57
2022-08-25T02:13:58.476Z,22.45
2022-08-25T02:14:58.461Z,22.61
2022-08-25T02:15:58.441Z,22.49
2022-08-25T02:16:58.548Z,22.45
2022-08-25T02:17:58.412Z,22.47
2022-08-25T02:18:58.389Z,22.47
2022-08-25T02:19:58.374Z,22.49
2022-08-25T02:20:58.356Z,22.45
2022-08-25T02:21:58.338Z,22.37
2022-08-25T02:22:58.320Z,22.43
2022-08-25T02:23:58.304Z,22.39
2022-08-25T02:24:58.286Z,22.35
2022-08-25T02:25:58.270Z,22.46
2022-08-25T02:26:58.251Z,22.39
2022-08-25T02:27:58.235Z,22.37
2022-08-25T02:28:58.219Z,22.39
2022-08-25T02:29:58.203Z,22.51
2022-08-25T02:31:01.649Z,22.36
2022-08-25T02:31:58.168Z,22.43
2022-08-25T02:32:58.149Z,22.39
2022-08-25T02:33:58.131Z,22.46
2022-08-25T02:34:58.116Z,22.43
2022-08-25T02:35:58.099Z,22.46
2022-08-25T02:36:58.079Z,22.37
2022-08-25T02:37:58.062Z,22.40
2022-08-25T02:38:58.045Z,22.42
2022-08-25T02:39:58.107Z,22.39
2022-08-25T02:40:58.014Z,22.37
2022-08-25T02:41:57.993Z,22.33
2022-08-25T02:42:57.974Z,22.39
2022-08-25T02:43:57.958Z,22.37
2022-08-25T02:44:57.938Z,22.39
2022-08-25T02:45:58.008Z,22.35
2022-08-25T02:46:57.909Z,22.36
2022-08-25T02:47:57.886Z,22.37
2022-08-25T02:48:57.868Z,22.37
2022-08-25T02:49:57.855Z,22.36
2022-08-25T02:50:57.836Z,22.33
2022-08-25T02:51:57.818Z,22.30
2022-08-25T02:52:57.802Z,22.36
2022-08-25T02:53:57.785Z,22.25
2022-08-25T02:54:57.765Z,22.22
2022-08-25T02:55:57.749Z,22.28
2022-08-25T02:56:57.734Z,22.27
2022-08-25T02:57:57.715Z,22.30
2022-08-25T02:58:57.695Z,22.27
2022-08-25T02:59:57.678Z,22.17
2022-08-25T03:00:57.680Z,22.24
2022-08-25T03:01:57.646Z,22.20
2022-08-25T03:02:57.630Z,22.00
2022-08-25T03:03:57.680Z,21.84
2022-08-25T03:04:57.652Z,21.59
2022-08-25T03:05:57.575Z,21.54
2022-08-25T03:06:57.556Z,21.38
2022-08-25T03:07:57.538Z,21.35
2022-08-25T03:08:57.525Z,21.28
2022-08-25T03:09:57.504Z,21.37
2022-08-25T03:10:57.488Z,21.38
2022-08-25T03:11:57.469Z,21.42
2022-08-25T03:12:57.453Z,21.34
2022-08-25T03:13:57.439Z,21.35
2022-08-25T03:14:57.415Z,21.46
2022-08-25T03:15:57.397Z,21.58
2022-08-25T03:16:57.445Z,21.52
2022-08-25T03:17:57.362Z,21.53
2022-08-25T03:18:57.543Z,21.56
2022-08-25T03:19:57.326Z,21.54
2022-08-25T03:20:57.309Z,21.50
2022-08-25T03:21:57.296Z,21.56
2022-08-25T03:22:57.275Z,21.65
2022-08-25T03:23:57.255Z,21.58
2022-08-25T03:24:57.244Z,21.59
2022-08-25T03:25:57.222Z,21.59
2022-08-25T03:26:57.208Z,21.62
2022-08-25T03:27:57.185Z,21.64
2022-08-25T03:28:57.170Z,21.58
2022-08-25T03:29:57.150Z,21.54
2022-08-25T03:30:57.131Z,21.56
2022-08-25T03:31:57.177Z,21.54
2022-08-25T03:32:57.099Z,21.54
2022-08-25T03:33:57.081Z,21.59
2022-08-25T03:34:57.061Z,21.58
2022-08-25T03:35:57.044Z,21.67
2022-08-25T03:36:57.024Z,21.67
2022-08-25T03:37:57.008Z,21.56
2022-08-25T03:38:56.991Z,21.61
2022-08-25T03:39:57.038Z,21.56
2022-08-25T03:40:56.958Z,21.58
2022-08-25T03:41:56.939Z,21.67
2022-08-25T03:42:56.947Z,21.64
2022-08-25T03:43:56.909Z,21.58
2022-08-25T03:44:56.886Z,21.59
2022-08-25T03:45:56.913Z,21.56
2022-08-25T03:46:56.845Z,21.61
2022-08-25T03:47:56.830Z,21.58
2022-08-25T03:48:56.811Z,21.53
2022-08-25T03:49:56.798Z,21.54
2022-08-25T03:50:56.774Z,21.53
2022-08-25T03:51:56.758Z,21.49
2022-08-25T03:52:56.739Z,21.37
2022-08-25T03:53:56.722Z,21.40
2022-08-25T03:54:56.706Z,21.42
2022-08-25T03:55:56.691Z,21.38
2022-08-25T03:56:56.669Z,21.40
2022-08-25T03:57:56.651Z,21.43
2022-08-25T03:58:56.630Z,21.40
2022-08-25T03:59:56.615Z,21.42
2022-08-25T04:00:56.676Z,21.40
2022-08-25T04:01:56.655Z,21.42
2022-08-25T04:02:56.561Z,21.37
2022-08-25T04:03:56.554Z,21.38
2022-08-25T04:04:56.527Z,21.42
2022-08-25T04:05:56.510Z,21.38
2022-08-25T04:06:56.490Z,21.46
2022-08-25T04:07:56.474Z,21.43
2022-08-25T04:08:56.454Z,21.42
2022-08-25T04:09:56.438Z,21.42
2022-08-25T04:10:56.424Z,21.40
2022-08-25T04:11:56.403Z,21.43
2022-08-25T04:12:56.389Z,21.49
2022-08-25T04:13:56.367Z,21.42
2022-08-25T04:14:56.348Z,21.38
2022-08-25T04:15:56.330Z,21.46
2022-08-25T04:16:56.435Z,21.42
2022-08-25T04:17:56.293Z,21.44
2022-08-25T04:18:56.276Z,21.44
2022-08-25T04:19:56.259Z,21.44
2022-08-25T04:20:56.244Z,21.44
2022-08-25T04:21:56.745Z,21.40
2022-08-25T04:22:56.209Z,21.42
2022-08-25T04:23:56.198Z,21.49
2022-08-25T04:24:56.171Z,21.43
2022-08-25T04:25:56.155Z,21.42
2022-08-25T04:26:56.134Z,21.43
2022-08-25T04:27:56.114Z,21.42
2022-08-25T04:28:56.097Z,21.42
2022-08-25T04:29:56.083Z,21.35
2022-08-25T04:30:56.069Z,21.47
2022-08-25T04:31:56.116Z,21.44
2022-08-25T04:32:56.025Z,21.35
2022-08-25T04:33:56.008Z,21.44
2022-08-25T04:34:55.992Z,21.40
2022-08-25T04:35:55.972Z,21.37
2022-08-25T04:36:55.953Z,21.42
2022-08-25T04:37:55.940Z,21.43
2022-08-25T04:38:55.921Z,21.43
2022-08-25T04:39:55.977Z,21.44
2022-08-25T04:40:55.889Z,21.44
2022-08-25T04:41:55.864Z,21.34
2022-08-25T04:42:55.845Z,21.37
2022-08-25T04:43:55.832Z,21.38
2022-08-25T04:44:55.817Z,21.38
2022-08-25T04:45:55.830Z,21.44
2022-08-25T04:46:55.778Z,21.31
2022-08-25T04:47:55.758Z,21.27
2022-08-25T04:48:55.738Z,21.35
2022-08-25T04:49:55.721Z,21.40
2022-08-25T04:50:55.703Z,21.25
2022-08-25T04:51:55.686Z,21.38
2022-08-25T04:52:55.669Z,21.27
2022-08-25T04:53:55.655Z,21.42
2022-08-25T04:54:55.632Z,21.31
2022-08-25T04:55:55.614Z,21.37
2022-08-25T04:56:58.021Z,21.42
2022-08-25T04:57:55.578Z,21.38
2022-08-25T04:58:55.557Z,21.37
2022-08-25T04:59:55.546Z,21.28
2022-08-25T05:00:55.539Z,21.25
2022-08-25T05:01:55.505Z,21.31
2022-08-25T05:02:55.486Z,21.38
2022-08-25T05:03:55.555Z,21.28
2022-08-25T05:04:55.451Z,21.34
2022-08-25T05:05:55.432Z,21.29
2022-08-25T05:06:55.416Z,21.31
2022-08-25T05:07:55.398Z,21.22
2022-08-25T05:08:55.381Z,21.22
2022-08-25T05:09:55.363Z,21.25
2022-08-25T05:10:55.344Z,21.29
2022-08-25T05:11:55.334Z,21.29
2022-08-25T05:12:55.309Z,21.25
2022-08-25T05:13:55.295Z,21.24
2022-08-25T05:14:55.274Z,21.24
2022-08-25T05:15:55.254Z,21.22
2022-08-25T05:16:55.237Z,21.24
2022-08-25T05:17:56.146Z,21.35
2022-08-25T05:18:55.201Z,21.37
2022-08-25T05:19:55.182Z,21.37
2022-08-25T05:20:55.162Z,21.31
2022-08-25T05:21:55.149Z,21.40
2022-08-25T05:22:55.127Z,21.28
2022-08-25T05:23:55.109Z,21.38
2022-08-25T05:24:55.091Z,21.35
2022-08-25T05:25:55.074Z,21.38
2022-08-25T05:26:55.057Z,21.40
2022-08-25T05:27:55.040Z,21.47
2022-08-25T05:28:55.018Z,21.53
2022-08-25T05:29:55.005Z,21.53
2022-08-25T05:30:54.987Z,21.58
2022-08-25T05:31:55.010Z,21.64
2022-08-25T05:32:54.946Z,21.50
2022-08-25T05:33:54.930Z,21.56
2022-08-25T05:34:54.913Z,21.56
2022-08-25T05:35:54.895Z,21.64
2022-08-25T05:36:54.881Z,21.61
2022-08-25T05:37:54.859Z,21.59
2022-08-25T05:38:54.839Z,21.59
2022-08-25T05:39:54.841Z,21.58
2022-08-25T05:40:54.806Z,21.54
2022-08-25T05:41:54.789Z,21.58
2022-08-25T05:42:54.771Z,21.65
2022-08-25T05:43:54.753Z,21.64
2022-08-25T05:44:54.733Z,21.64
2022-08-25T05:45:54.778Z,21.62
2022-08-25T05:46:54.699Z,21.59
2022-08-25T05:47:54.678Z,21.72
2022-08-25T05:48:54.664Z,21.64
2022-08-25T05:49:54.645Z,21.69
2022-08-25T05:50:54.638Z,21.72
2022-08-25T05:51:54.611Z,21.82
2022-08-25T05:52:54.591Z,21.90
2022-08-25T05:53:54.571Z,21.88
2022-08-25T05:54:54.558Z,21.86
2022-08-25T05:55:54.536Z,21.92
2022-08-25T05:56:54.523Z,21.84
2022-08-25T05:57:54.500Z,21.88
2022-08-25T05:58:54.488Z,21.91
2022-08-25T05:59:54.470Z,22.00
2022-08-25T06:00:54.493Z,21.96
2022-08-25T06:01:54.436Z,21.99
2022-08-25T06:02:54.415Z,21.98
2022-08-25T06:03:54.603Z,22.06
2022-08-25T06:04:54.381Z,21.92
2022-08-25T06:05:54.363Z,22.00
2022-08-25T06:06:54.342Z,21.94
2022-08-25T06:07:54.325Z,22.05
2022-08-25T06:08:54.307Z,21.98
2022-08-25T06:09:54.288Z,21.94
2022-08-25T06:10:54.276Z,21.99
2022-08-25T06:11:55.352Z,22.03
2022-08-25T06:12:54.237Z,22.02
2022-08-25T06:13:54.219Z,22.10
2022-08-25T06:14:54.201Z,22.12
2022-08-25T06:15:54.225Z,22.14
2022-08-25T06:16:54.168Z,22.17
2022-08-25T06:17:56.736Z,22.22
2022-08-25T06:18:54.132Z,22.30
2022-08-25T06:19:54.112Z,22.25
2022-08-25T06:20:54.095Z,22.27
2022-08-25T06:21:54.090Z,22.39
2022-08-25T06:22:54.060Z,22.37
2022-08-25T06:23:54.043Z,22.39
2022-08-25T06:24:54.028Z,22.35
2022-08-25T06:25:54.007Z,22.36
2022-08-25T06:26:53.990Z,22.40
2022-08-25T06:27:53.970Z,22.45
2022-08-25T06:28:53.955Z,22.43
2022-08-25T06:29:56.035Z,22.36
2022-08-25T06:30:53.920Z,22.37
2022-08-25T06:31:53.980Z,22.51
2022-08-25T06:32:53.892Z,22.51
2022-08-25T06:33:53.865Z,22.60
2022-08-25T06:34:53.850Z,22.52
2022-08-25T06:35:53.831Z,22.61
2022-08-25T06:36:53.812Z,22.67
2022-08-25T06:37:53.795Z,22.75
2022-08-25T06:38:53.778Z,22.75
2022-08-25T06:39:53.834Z,22.79
2022-08-25T06:40:53.746Z,22.88
2022-08-25T06:41:53.724Z,22.92
2022-08-25T06:42:53.707Z,22.82
2022-08-25T06:43:57.513Z,22.82
2022-08-25T06:44:53.673Z,22.91
2022-08-25T06:45:53.654Z,22.91
2022-08-25T06:46:53.663Z,23.05
2022-08-25T06:47:53.623Z,23.10
2022-08-25T06:48:53.607Z,23.02
2022-08-25T06:49:53.589Z,23.13
2022-08-25T06:50:53.573Z,23.15
2022-08-25T06:51:53.552Z,23.16
2022-08-25T06:52:53.533Z,23.15
2022-08-25T06:53:53.521Z,23.10
2022-08-25T06:54:53.500Z,23.20
2022-08-25T06:55:53.480Z,23.19
2022-08-25T06:56:53.463Z,23.27
2022-08-25T06:57:53.448Z,23.38
2022-08-25T06:58:53.446Z,23.35
2022-08-25T06:59:53.655Z,23.42
2022-08-25T07:00:53.441Z,23.43
2022-08-25T07:01:53.482Z,23.47
2022-08-25T07:02:53.519Z,23.55
2022-08-25T07:03:53.341Z,23.63
2022-08-25T07:04:53.326Z,23.63
2022-08-25T07:05:53.307Z,23.69
2022-08-25T07:06:53.292Z,23.72
2022-08-25T07:07:53.272Z,23.73
2022-08-25T07:08:53.258Z,23.79
2022-08-25T07:09:53.241Z,23.84
2022-08-25T07:10:53.224Z,23.94
2022-08-25T07:11:53.203Z,23.88
2022-08-25T07:12:53.187Z,24.05
2022-08-25T07:13:53.177Z,24.06
2022-08-25T07:15:10.050Z,24.06
2022-08-25T07:15:53.269Z,24.06
2022-08-25T07:16:53.128Z,24.18
2022-08-25T07:17:53.100Z,24.28
2022-08-25T07:18:53.084Z,24.28
2022-08-25T07:19:57.428Z,24.21
2022-08-25T07:20:53.051Z,24.30
2022-08-25T07:21:53.043Z,24.27
2022-08-25T07:22:53.021Z,24.18
2022-08-25T07:23:53.001Z,24.34
2022-08-25T07:24:52.983Z,24.32
2022-08-25T07:25:52.965Z,24.37
2022-08-25T07:26:52.953Z,24.32
2022-08-25T07:27:55.890Z,24.39
2022-08-25T07:28:52.925Z,24.47
2022-08-25T07:29:52.898Z,24.45
2022-08-25T07:30:52.882Z,24.57
2022-08-25T07:31:52.925Z,24.64
2022-08-25T07:32:55.022Z,24.67
2022-08-25T07:33:52.831Z,24.73
2022-08-25T07:34:52.939Z,24.69
2022-08-25T07:35:52.795Z,24.81
2022-08-25T07:36:52.779Z,24.77
2022-08-25T07:37:52.763Z,24.81
2022-08-25T07:38:52.747Z,24.85
2022-08-25T07:39:52.759Z,24.91
2022-08-25T07:41:52.787Z,25.00
2022-08-25T07:42:52.679Z,25.05
2022-08-25T07:43:52.661Z,25.10
2022-08-25T07:44:52.645Z,25.13
2022-08-25T07:45:52.640Z,25.17
2022-08-25T07:46:53.654Z,25.20
2022-08-25T07:47:52.597Z,25.18
2022-08-25T07:48:53.229Z,25.30
2022-08-25T07:49:52.567Z,25.32
2022-08-25T07:50:52.550Z,25.38
2022-08-25T07:52:05.437Z,25.46
2022-08-25T07:52:55.139Z,25.57
2022-08-25T07:53:52.496Z,25.55
2022-08-25T07:54:52.480Z,25.54
2022-08-25T07:55:53.685Z,25.67
2022-08-25T07:56:52.451Z,25.61
2022-08-25T07:57:54.097Z,25.69
2022-08-25T07:58:52.417Z,25.79
2022-08-25T07:59:52.400Z,25.76
2022-08-25T08:00:52.384Z,25.85
2022-08-25T08:01:52.461Z,25.91
2022-08-25T08:02:52.383Z,25.90
2022-08-25T08:03:52.416Z,25.90
2022-08-25T08:04:52.323Z,25.88
2022-08-25T08:05:52.303Z,25.99
2022-08-25T08:06:52.287Z,26.07
2022-08-25T08:07:52.268Z,26.21
2022-08-25T08:08:54.693Z,26.13
2022-08-25T08:10:05.357Z,26.26
2022-08-25T08:11:07.605Z,26.20
2022-08-25T08:11:53.968Z,26.23
2022-08-25T08:12:52.190Z,26.28
2022-08-25T08:13:52.174Z,26.36
2022-08-25T08:14:52.164Z,26.37
2022-08-25T08:15:52.194Z,26.36
2022-08-25T08:16:52.129Z,26.50
2022-08-25T08:17:52.119Z,26.47
2022-08-25T08:18:52.095Z,26.52
2022-08-25T08:19:52.077Z,26.62
2022-08-25T08:20:52.069Z,26.63
2022-08-25T08:21:52.496Z,26.62
2022-08-25T08:22:52.035Z,26.69
2022-08-25T08:23:56.688Z,26.75
2022-08-25T08:24:54.476Z,26.82
2022-08-25T08:25:51.986Z,26.82
2022-08-25T08:26:58.585Z,27.00
2022-08-25T08:27:51.953Z,26.94
2022-08-25T08:28:52.319Z,27.02
2022-08-25T08:29:51.923Z,26.91
2022-08-25T08:30:53.600Z,26.99
2022-08-25T08:31:51.938Z,27.09
2022-08-25T08:33:11.375Z,27.10
2022-08-25T08:33:51.862Z,27.04
2022-08-25T08:34:51.849Z,27.09
2022-08-25T08:35:51.832Z,27.10
2022-08-25T08:36:51.821Z,27.10
2022-08-25T08:37:53.924Z,27.21
2022-08-25T08:38:51.789Z,27.14
2022-08-25T08:39:51.820Z,27.25
2022-08-25T08:40:51.757Z,27.24
2022-08-25T08:42:10.833Z,27.36
2022-08-25T08:42:51.728Z,27.44
2022-08-25T08:43:51.711Z,27.54
2022-08-25T08:44:51.698Z,27.55
2022-08-25T08:45:51.680Z,27.63
2022-08-25T08:46:51.714Z,27.63
2022-08-25T08:47:51.651Z,27.62
2022-08-25T08:48:51.636Z,27.75
2022-08-25T08:49:51.624Z,27.78
2022-08-25T08:50:51.606Z,27.79
2022-08-25T08:51:51.594Z,27.77
2022-08-25T08:52:51.579Z,27.79
2022-08-25T08:53:51.561Z,27.79
2022-08-25T08:54:51.547Z,27.77
2022-08-25T08:55:52.914Z,27.85
2022-08-25T08:56:51.519Z,27.81
2022-08-25T08:57:51.505Z,27.87
2022-08-25T08:58:51.489Z,27.90
2022-08-25T08:59:51.470Z,27.96
2022-08-25T09:00:52.325Z,27.94
2022-08-25T09:01:52.509Z,27.93
2022-08-25T09:02:52.295Z,27.85
2022-08-25T09:03:55.168Z,27.93
2022-08-25T09:04:51.401Z,27.85
2022-08-25T09:05:51.387Z,27.97
2022-08-25T09:06:51.378Z,28.06
2022-08-25T09:08:05.061Z,28.06
2022-08-25T09:08:51.342Z,28.03
2022-08-25T09:09:52.186Z,28.03
2022-08-25T09:10:51.321Z,28.02
2022-08-25T09:11:51.300Z,28.12
2022-08-25T09:12:51.339Z,28.03
2022-08-25T09:13:51.270Z,28.07
2022-08-25T09:14:53.877Z,28.02
2022-08-25T09:15:51.268Z,28.14
2022-08-25T09:16:51.295Z,28.09
2022-08-25T09:17:54.776Z,28.04
2022-08-25T09:18:52.598Z,28.06
2022-08-25T09:19:51.183Z,27.88
2022-08-25T09:20:51.167Z,27.94
2022-08-25T09:21:51.154Z,27.97
2022-08-25T09:22:51.139Z,27.90
2022-08-25T09:23:51.123Z,28.03
2022-08-25T09:24:51.157Z,28.07
2022-08-25T09:25:52.684Z,28.06
2022-08-25T09:26:51.085Z,28.18
2022-08-25T09:27:51.066Z,28.30
2022-08-25T09:28:51.300Z,28.44
2022-08-25T09:29:51.037Z,28.31
2022-08-25T09:30:51.101Z,28.48
2022-08-25T09:31:51.120Z,28.46
2022-08-25T09:32:52.478Z,28.52
2022-08-25T09:33:50.987Z,28.56
2022-08-25T09:34:50.972Z,28.56
2022-08-25T09:35:50.950Z,28.66
2022-08-25T09:36:50.938Z,28.74
2022-08-25T09:37:50.924Z,28.58
2022-08-25T09:38:50.911Z,28.58
2022-08-25T09:39:50.977Z,28.49
2022-08-25T09:40:50.882Z,28.49
2022-08-25T09:41:51.240Z,28.48
2022-08-25T09:42:50.854Z,28.44
2022-08-25T09:43:50.848Z,28.51
2022-08-25T09:44:50.824Z,28.59
2022-08-25T09:45:50.814Z,28.59
2022-08-25T09:46:50.798Z,28.71
2022-08-25T09:47:50.779Z,28.66
2022-08-25T09:48:55.972Z,28.62
2022-08-25T09:49:50.765Z,28.71
2022-08-25T09:50:50.741Z,28.66
2022-08-25T09:51:52.689Z,28.62
2022-08-25T09:52:53.418Z,28.80
2022-08-25T09:53:50.702Z,28.76
2022-08-25T09:54:50.685Z,28.71
2022-08-25T09:55:50.671Z,28.74
2022-08-25T09:56:50.652Z,28.81
2022-08-25T09:57:52.958Z,28.80
2022-08-25T09:58:50.627Z,28.76
2022-08-25T09:59:57.330Z,28.76
2022-08-25T10:00:50.599Z,28.85
2022-08-25T10:01:50.658Z,28.88
2022-08-25T10:02:50.570Z,28.78
2022-08-25T10:03:50.568Z,28.80
2022-08-25T10:04:50.558Z,28.73
2022-08-25T10:05:56.377Z,28.73
2022-08-25T10:06:50.515Z,28.88
2022-08-25T10:07:52.007Z,28.83
2022-08-25T10:08:50.491Z,28.88
2022-08-25T10:09:50.476Z,28.86
2022-08-25T10:10:50.461Z,28.86
2022-08-25T10:11:50.447Z,28.90
2022-08-25T10:12:51.344Z,28.96
2022-08-25T10:13:51.382Z,29.06
2022-08-25T10:14:50.408Z,29.00
2022-08-25T10:15:50.428Z,29.00
2022-08-25T10:16:50.477Z,29.11
2022-08-25T10:17:50.363Z,29.16
2022-08-25T10:18:50.349Z,29.27
2022-08-25T10:19:50.336Z,29.31
2022-08-25T10:20:50.320Z,29.18
2022-08-25T10:21:50.309Z,29.15
2022-08-25T10:22:50.554Z,29.05
2022-08-25T10:23:50.281Z,29.08
2022-08-25T10:24:50.266Z,29.21
2022-08-25T10:25:59.191Z,29.31
2022-08-25T10:26:50.240Z,29.30
2022-08-25T10:27:50.234Z,29.15
2022-08-25T10:28:50.214Z,29.24
2022-08-25T10:29:50.197Z,29.16
2022-08-25T10:30:50.292Z,29.18
2022-08-25T10:31:50.171Z,29.28
2022-08-25T10:32:50.157Z,29.31
2022-08-25T10:33:50.420Z,29.42
2022-08-25T10:34:51.788Z,29.28
2022-08-25T10:35:50.118Z,29.34
2022-08-25T10:36:50.102Z,29.26
2022-08-25T10:37:50.089Z,29.28
2022-08-25T10:38:50.077Z,29.30
2022-08-25T10:39:55.400Z,29.36
2022-08-25T10:40:50.052Z,29.37
2022-08-25T10:41:51.252Z,29.39
2022-08-25T10:42:50.020Z,29.41
2022-08-25T10:43:50.010Z,29.46
2022-08-25T10:44:49.999Z,29.43
2022-08-25T10:45:50.926Z,29.45
2022-08-25T10:46:49.976Z,29.41
2022-08-25T10:47:49.955Z,29.45
2022-08-25T10:48:49.984Z,29.36
2022-08-25T10:49:50.220Z,29.41
2022-08-25T10:50:49.914Z,29.34
2022-08-25T10:51:50.964Z,29.46
2022-08-25T10:52:49.890Z,29.61
2022-08-25T10:53:49.897Z,29.70
2022-08-25T10:54:49.861Z,29.70
2022-08-25T10:55:50.361Z,29.74
2022-08-25T10:56:49.832Z,29.64
2022-08-25T10:57:49.821Z,29.64
2022-08-25T10:58:49.805Z,29.58
2022-08-25T10:59:49.793Z,29.55
2022-08-25T11:00:49.787Z,29.49
2022-08-25T11:01:53.357Z,29.43
2022-08-25T11:02:49.752Z,29.37
2022-08-25T11:03:49.738Z,29.43
2022-08-25T11:04:49.810Z,29.48
2022-08-25T11:05:49.713Z,29.60
2022-08-25T11:06:52.718Z,29.71
2022-08-25T11:07:49.685Z,29.70
2022-08-25T11:08:49.679Z,29.71
2022-08-25T11:09:49.660Z,29.68
2022-08-25T11:10:50.413Z,29.80
2022-08-25T11:11:49.631Z,29.82
2022-08-25T11:12:49.618Z,29.79
2022-08-25T11:13:49.607Z,29.78
2022-08-25T11:14:49.591Z,29.79
2022-08-25T11:16:06.542Z,29.87
2022-08-25T11:16:49.632Z,29.86
2022-08-25T11:17:50.306Z,29.92
2022-08-25T11:18:49.540Z,29.85
2022-08-25T11:19:49.528Z,29.80
2022-08-25T11:20:49.511Z,29.71
2022-08-25T11:21:49.502Z,29.76
2022-08-25T11:22:49.485Z,29.86
2022-08-25T11:23:49.477Z,29.86
2022-08-25T11:24:49.457Z,29.89
2022-08-25T11:25:49.451Z,29.89
2022-08-25T11:26:49.437Z,29.85
2022-08-25T11:27:49.421Z,30.05
2022-08-25T11:28:49.409Z,30.08
2022-08-25T11:29:49.393Z,30.15
2022-08-25T11:30:49.416Z,30.08
2022-08-25T11:31:53.078Z,30.10
2022-08-25T11:32:49.352Z,29.94
2022-08-25T11:33:49.341Z,29.97
2022-08-25T11:34:49.328Z,29.90
2022-08-25T11:35:49.346Z,29.90
2022-08-25T11:36:49.301Z,29.82
2022-08-25T11:37:49.289Z,29.94
2022-08-25T11:38:49.292Z,30.04
2022-08-25T11:39:49.329Z,29.98
2022-08-25T11:40:50.087Z,30.11
2022-08-25T11:41:49.239Z,30.07
2022-08-25T11:42:49.220Z,29.94
2022-08-25T11:43:49.209Z,30.04
2022-08-25T11:44:53.666Z,30.04
2022-08-25T11:45:54.274Z,30.10
2022-08-25T11:46:49.168Z,29.97
2022-08-25T11:47:49.156Z,29.98
2022-08-25T11:48:49.142Z,30.01
2022-08-25T11:49:49.131Z,30.15
2022-08-25T11:50:49.116Z,30.16
2022-08-25T11:51:49.103Z,30.11
2022-08-25T11:52:49.088Z,30.15
2022-08-25T11:53:49.081Z,30.07
2022-08-25T11:54:49.066Z,30.07
2022-08-25T11:55:49.053Z,30.11
2022-08-25T11:56:49.036Z,30.15
2022-08-25T11:57:53.145Z,30.20
2022-08-25T11:58:49.937Z,30.15
2022-08-25T11:59:49.008Z,30.16
2022-08-25T12:00:48.985Z,30.16
2022-08-25T12:01:48.974Z,30.13
2022-08-25T12:02:48.959Z,30.22
2022-08-25T12:03:50.744Z,30.16
2022-08-25T12:04:49.054Z,30.15
2022-08-25T12:05:48.965Z,30.15
2022-08-25T12:06:48.907Z,30.11
2022-08-25T12:07:48.894Z,30.11
2022-08-25T12:08:48.879Z,30.31
2022-08-25T12:09:48.866Z,30.24
2022-08-25T12:10:48.854Z,30.29
2022-08-25T12:11:48.839Z,30.37
2022-08-25T12:12:48.825Z,30.39
2022-08-25T12:13:48.815Z,30.39
2022-08-25T12:14:48.801Z,30.49
2022-08-25T12:15:48.799Z,30.32
2022-08-25T12:16:48.823Z,30.29
2022-08-25T12:17:48.761Z,30.26
2022-08-25T12:18:50.564Z,30.35
2022-08-25T12:19:48.734Z,30.23
2022-08-25T12:20:48.723Z,30.26
2022-08-25T12:21:48.713Z,30.24
2022-08-25T12:22:48.694Z,30.13
2022-08-25T12:23:52.837Z,30.19
2022-08-25T12:24:48.852Z,30.22
2022-08-25T12:25:48.661Z,30.20
2022-08-25T12:26:48.645Z,30.27
2022-08-25T12:27:48.629Z,30.32
2022-08-25T12:28:48.621Z,30.42
2022-08-25T12:29:48.605Z,30.47
2022-08-25T12:30:50.664Z,30.45
2022-08-25T12:31:48.580Z,30.46
2022-08-25T12:32:48.564Z,30.49
2022-08-25T12:33:48.557Z,30.54
2022-08-25T12:34:48.539Z,30.55
2022-08-25T12:35:48.524Z,30.54
2022-08-25T12:36:48.529Z,30.57
2022-08-25T12:37:48.505Z,30.60
2022-08-25T12:38:51.868Z,30.69
2022-08-25T12:39:48.560Z,30.69
2022-08-25T12:40:48.461Z,30.58
2022-08-25T12:41:48.512Z,30.67
2022-08-25T12:42:48.442Z,30.62
2022-08-25T12:43:48.422Z,30.72
2022-08-25T12:44:49.491Z,30.76
2022-08-25T12:45:48.497Z,30.95
2022-08-25T12:46:48.406Z,30.82
2022-08-25T12:47:48.379Z,30.91
2022-08-25T12:48:48.354Z,30.94
2022-08-25T12:49:48.348Z,30.97
2022-08-25T12:50:48.330Z,30.94
2022-08-25T12:51:48.722Z,31.02
2022-08-25T12:52:48.305Z,30.97